createdAt,value
2022-11-24T00:00:39.692Z,96937.63
2022-11-24T00:05:41.081Z,96928.72
2022-11-24T00:10:42.695Z,96925.44
2022-11-24T00:15:44.079Z,96926.13
2022-11-24T00:20:52.168Z,96927.41
2022-11-24T00:25:53.562Z,96927.22
2022-11-24T00:30:55.044Z,96938.25
2022-11-24T00:35:58.383Z,96932.31
2022-11-24T00:40:59.753Z,96943.19
2022-11-24T00:46:01.284Z,96950.41
2022-11-24T00:51:06.309Z,96952.41
2022-11-24T00:56:08.603Z,96953.69
2022-11-24T01:01:18.934Z,96954.31
2022-11-24T01:06:25.859Z,96955.63
2022-11-24T01:11:29.856Z,96968.44
2022-11-24T01:16:34.421Z,96972.69
2022-11-24T01:21:35.814Z,96984.53
2022-11-24T01:26:38.395Z,96983.03
2022-11-24T01:31:40.412Z,96982.91
2022-11-24T01:36:41.815Z,96994.78
2022-11-24T01:41:43.213Z,97000.06
2022-11-24T01:46:48.504Z,96997.94
2022-11-24T01:52:13.709Z,97006.84
2022-11-24T01:57:21.986Z,97003.38
2022-11-24T02:02:25.733Z,96996.47
2022-11-24T02:07:28.022Z,97006.75
2022-11-24T02:12:29.467Z,97008.44
2022-11-24T02:17:30.846Z,97021.50
2022-11-24T02:22:44.177Z,97019.34
2022-11-24T02:27:50.760Z,97010.81
2022-11-24T02:32:55.114Z,97020.75
2022-11-24T02:37:56.541Z,97016.47
2022-11-24T02:43:04.565Z,97021.28
2022-11-24T02:48:06.482Z,97027.44
2022-11-24T02:53:07.917Z,97022.16
2022-11-24T02:58:09.346Z,97022.81
2022-11-24T03:03:11.311Z,97023.81
2022-11-24T03:08:12.927Z,97022.81
2022-11-24T03:13:14.466Z,97038.00
2022-11-24T03:18:15.904Z,97037.28
2022-11-24T03:23:17.300Z,97040.41
2022-11-24T03:28:18.697Z,97037.06
2022-11-24T03:33:20.065Z,97045.16
2022-11-24T03:38:21.440Z,97045.34
2022-11-24T03:43:22.894Z,97053.59
2022-11-24T03:48:24.381Z,97048.69
2022-11-24T03:53:27.829Z,97050.19
2022-11-24T03:58:29.935Z,97046.56
2022-11-24T04:03:31.388Z,97064.66
2022-11-24T04:08:33.132Z,97072.19
2022-11-24T04:13:34.497Z,97068.69
2022-11-24T04:18:35.892Z,97070.19
2022-11-24T04:23:37.260Z,97071.56
2022-11-24T04:28:38.669Z,97082.50
2022-11-24T04:33:40.344Z,97082.88
2022-11-24T04:39:23.121Z,97094.31
2022-11-24T04:44:03.196Z,97104.69
2022-11-24T04:49:05.416Z,97112.16
2022-11-24T04:54:08.106Z,97104.06
2022-11-24T04:59:14.852Z,97115.31
2022-11-24T05:04:16.477Z,97130.16
2022-11-24T05:09:18.172Z,97134.47
2022-11-24T05:14:19.571Z,97130.53
2022-11-24T05:19:21.100Z,97145.41
2022-11-24T05:24:22.463Z,97146.59
2022-11-24T05:29:23.830Z,97149.75
2022-11-24T05:34:25.418Z,97152.06
2022-11-24T05:39:26.811Z,97154.41
2022-11-24T05:44:28.237Z,97161.50
2022-11-24T05:49:29.620Z,97169.63
2022-11-24T05:54:31.087Z,97174.47
2022-11-24T05:59:32.594Z,97176.47
2022-11-24T06:04:34.383Z,97178.34
2022-11-24T06:09:40.927Z,97187.41
2022-11-24T06:14:42.460Z,97196.69
2022-11-24T06:19:47.752Z,97197.00
2022-11-24T06:24:50.560Z,97201.84
2022-11-24T06:29:52.259Z,97218.06
2022-11-24T06:34:53.620Z,97221.03
2022-11-24T06:39:54.992Z,97219.03
2022-11-24T06:44:56.374Z,97230.94
2022-11-24T06:49:57.988Z,97228.47
2022-11-24T06:54:59.385Z,97229.31
2022-11-24T07:00:00.807Z,97241.06
2022-11-24T07:05:02.185Z,97242.06
2022-11-24T07:10:03.828Z,97257.78
2022-11-24T07:15:05.811Z,97248.19
2022-11-24T07:20:08.710Z,97258.44
2022-11-24T07:25:10.792Z,97260.09
2022-11-24T07:30:12.531Z,97264.75
2022-11-24T07:35:13.994Z,97270.41
2022-11-24T07:40:15.644Z,97278.16
2022-11-24T07:45:17.062Z,97286.09
2022-11-24T07:50:18.898Z,97296.56
2022-11-24T07:55:20.290Z,97294.25
2022-11-24T08:00:21.689Z,97292.91
2022-11-24T08:05:23.149Z,97293.91
2022-11-24T08:10:24.551Z,97297.38
2022-11-24T08:15:26.010Z,97293.22
2022-11-24T08:20:27.369Z,97298.50
2022-11-24T08:25:32.975Z,97297.16
2022-11-24T08:30:34.393Z,97302.97
2022-11-24T08:35:37.976Z,97300.13
2022-11-24T08:40:39.407Z,97302.28
2022-11-24T08:45:41.867Z,97308.06
2022-11-24T08:50:43.493Z,97308.56
2022-11-24T08:55:44.868Z,97313.00
2022-11-24T09:00:46.282Z,97318.28
2022-11-24T09:05:52.528Z,97312.31
2022-11-24T09:10:59.408Z,97308.97
2022-11-24T09:16:12.515Z,97315.91
2022-11-24T09:21:18.991Z,97320.81
2022-11-24T09:26:27.942Z,97320.63
2022-11-24T09:31:31.604Z,97323.34
2022-11-24T09:36:33.479Z,97309.66
2022-11-24T09:41:39.516Z,97313.22
2022-11-24T09:47:24.575Z,97327.13
2022-11-24T09:53:01.019Z,97327.00
2022-11-24T09:58:23.749Z,97329.19
2022-11-24T10:03:43.244Z,97331.38
2022-11-24T10:09:12.993Z,97336.03
2022-11-24T10:14:26.252Z,97340.31
2022-11-24T10:19:48.352Z,97343.75
2022-11-24T10:25:21.808Z,97348.03
2022-11-24T10:30:26.551Z,97353.69
2022-11-24T10:35:37.409Z,97356.00
2022-11-24T10:40:59.978Z,97351.00
2022-11-24T10:46:16.374Z,97349.63
2022-11-24T10:51:30.106Z,97342.59
2022-11-24T10:56:42.367Z,97350.22
2022-11-24T11:01:43.783Z,97349.88
2022-11-24T11:06:45.600Z,97347.56
2022-11-24T11:11:48.704Z,97336.59
2022-11-24T11:16:59.441Z,97338.63
2022-11-24T11:22:03.691Z,97354.56
2022-11-24T11:27:26.348Z,97357.84
2022-11-24T11:37:51.038Z,97354.22
2022-11-24T11:43:21.939Z,97346.53
2022-11-24T11:48:32.404Z,97358.94
2022-11-24T11:53:49.754Z,97358.84
2022-11-24T11:59:06.271Z,97372.56
2022-11-24T12:04:41.672Z,97360.22
2022-11-24T12:10:08.949Z,97364.88
2022-11-24T12:15:41.553Z,97368.19
2022-11-24T12:20:55.251Z,97369.38
2022-11-24T12:26:22.569Z,97376.19
2022-11-24T12:31:45.983Z,97385.78
2022-11-24T12:37:02.271Z,97388.38
2022-11-24T12:42:13.028Z,97386.66
2022-11-24T12:47:23.618Z,97391.72
2022-11-24T12:52:35.563Z,97392.94
2022-11-24T12:58:00.024Z,97395.13
2022-11-24T13:03:10.702Z,97403.47
2022-11-24T13:08:14.130Z,97398.78
2022-11-24T13:13:15.820Z,97400.47
2022-11-24T13:18:55.680Z,97413.47
2022-11-24T13:23:58.818Z,97405.53
2022-11-24T13:29:13.025Z,97411.59
2022-11-24T13:34:38.548Z,97423.50
2022-11-24T13:40:03.152Z,97431.81
2022-11-24T13:45:25.462Z,97431.00
2022-11-24T13:50:56.857Z,97437.59
2022-11-24T13:56:00.371Z,97427.78
2022-11-24T14:01:06.423Z,97439.91
2022-11-24T14:06:34.218Z,97439.91
2022-11-24T14:11:35.719Z,97448.81
2022-11-24T14:16:37.143Z,97450.50
2022-11-24T14:21:41.370Z,97461.19
2022-11-24T14:26:46.947Z,97464.19
2022-11-24T14:32:03.389Z,97465.84
2022-11-24T14:37:04.772Z,97469.16
2022-11-24T14:42:21.584Z,97466.28
2022-11-24T14:47:37.463Z,97480.50
2022-11-24T14:52:46.187Z,97486.50
2022-11-24T14:57:47.565Z,97504.94
2022-11-24T15:02:54.927Z,97506.59
2022-11-24T15:08:03.375Z,97507.44
2022-11-24T15:13:19.808Z,97517.22
2022-11-24T15:18:31.894Z,97523.72
2022-11-24T15:23:34.963Z,97516.09
2022-11-24T15:28:36.527Z,97529.06
2022-11-24T15:33:38.526Z,97526.13
2022-11-24T15:38:39.912Z,97531.09
2022-11-24T15:43:41.690Z,97544.03
2022-11-24T15:48:43.102Z,97545.41
2022-11-24T15:53:46.384Z,97551.25
2022-11-24T15:58:48.375Z,97551.31
2022-11-24T16:03:50.057Z,97562.59
2022-11-24T16:08:52.556Z,97562.94
2022-11-24T16:13:54.615Z,97571.88
2022-11-24T16:18:56.208Z,97572.84
2022-11-24T16:23:57.839Z,97568.03
2022-11-24T16:28:59.403Z,97579.97
2022-11-24T16:34:00.842Z,97575.97
2022-11-24T16:39:02.267Z,97583.78
2022-11-24T16:44:04.041Z,97592.25
2022-11-24T16:49:05.534Z,97591.56
2022-11-24T16:54:07.011Z,97594.03
2022-11-24T16:59:08.489Z,97602.00
2022-11-24T17:04:12.746Z,97605.34
2022-11-24T17:09:15.075Z,97605.34
2022-11-24T17:14:16.936Z,97605.97
2022-11-24T17:19:18.499Z,97611.97
2022-11-24T17:24:20.034Z,97607.31
2022-11-24T17:29:21.423Z,97627.56
2022-11-24T17:34:22.799Z,97622.59
2022-11-24T17:39:25.383Z,97626.41
2022-11-24T17:44:26.920Z,97629.06
2022-11-24T17:49:28.466Z,97625.25
2022-11-24T17:54:45.866Z,97636.25
2022-11-24T17:59:48.038Z,97643.25
2022-11-24T18:04:50.797Z,97640.25
2022-11-24T18:09:56.735Z,97650.19
2022-11-24T18:14:58.278Z,97646.53
2022-11-24T18:19:59.684Z,97656.97
2022-11-24T18:25:01.083Z,97659.47
2022-11-24T18:30:03.776Z,97657.81
2022-11-24T18:35:05.852Z,97668.44
2022-11-24T18:40:08.129Z,97659.81
2022-11-24T18:45:10.062Z,97661.16
2022-11-24T18:50:11.482Z,97665.47
2022-11-24T18:55:12.933Z,97667.59
2022-11-24T19:00:14.571Z,97661.47
2022-11-24T19:05:15.963Z,97679.06
2022-11-24T19:10:17.410Z,97675.75
2022-11-24T19:15:18.837Z,97671.09
2022-11-24T19:20:20.406Z,97675.28
2022-11-24T19:25:21.830Z,97680.06
2022-11-24T19:30:23.307Z,97672.09
2022-11-24T19:35:24.708Z,97682.72
2022-11-24T19:40:26.158Z,97682.06
2022-11-24T19:45:28.619Z,97687.03
2022-11-24T19:50:30.038Z,97695.34
2022-11-24T19:55:32.133Z,97689.69
2022-11-24T20:00:33.524Z,97699.97
2022-11-24T20:05:34.933Z,97705.47
2022-11-24T20:10:36.623Z,97706.59
2022-11-24T20:15:38.020Z,97712.28
2022-11-24T20:20:42.534Z,97719.56
2022-11-24T20:25:43.914Z,97726.53
2022-11-24T20:30:45.364Z,97737.69
2022-11-24T20:35:46.775Z,97735.50
2022-11-24T20:40:48.141Z,97742.81
2022-11-24T20:45:49.580Z,97741.84
2022-11-24T20:50:51.606Z,97750.44
2022-11-24T20:56:05.445Z,97747.78
2022-11-24T21:01:10.348Z,97750.63
2022-11-24T21:06:13.872Z,97755.44
2022-11-24T21:11:15.419Z,97760.28
2022-11-24T21:16:23.407Z,97764.09
2022-11-24T21:21:27.280Z,97769.03
2022-11-24T21:26:28.667Z,97773.38
2022-11-24T21:31:30.119Z,97764.56
2022-11-24T21:36:33.988Z,97764.09
2022-11-24T21:41:35.418Z,97770.06
2022-11-24T21:46:42.465Z,97774.38
2022-11-24T21:51:47.502Z,97778.69
2022-11-24T21:56:48.929Z,97778.19
2022-11-24T22:01:50.367Z,97786.34
2022-11-24T22:06:55.288Z,97783.34
2022-11-24T22:11:56.664Z,97789.31
2022-11-24T22:16:58.014Z,97794.94
2022-11-24T22:21:59.383Z,97792.63
2022-11-24T22:27:02.814Z,97791.59
2022-11-24T22:32:04.675Z,97790.56
2022-11-24T22:37:06.127Z,97798.13
2022-11-24T22:42:07.534Z,97799.34
2022-11-24T22:47:09.239Z,97808.81
2022-11-24T22:52:10.598Z,97815.69
2022-11-24T22:57:11.995Z,97816.00
2022-11-24T23:02:13.450Z,97814.34
2022-11-24T23:07:14.851Z,97816.63
2022-11-24T23:12:18.298Z,97816.03
2022-11-24T23:17:19.774Z,97821.44
2022-11-24T23:22:21.138Z,97839.25
2022-11-24T23:27:22.512Z,97831.16
2022-11-24T23:32:23.914Z,97830.16
2022-11-24T23:37:39.325Z,97822.28
2022-11-24T23:42:47.803Z,97819.94
2022-11-24T23:47:49.170Z,97834.81
2022-11-24T23:52:50.527Z,97824.31
2022-11-24T23:57:51.899Z,97826.06
